Time;durP1;ratioP1;P1;durP2;ratioP2;P2;SDS_P1;SDS_P2;PMS_P1;PMS_P2;Temp;Humidity;BMP_temperature;BMP_pressure;BME280_temperature;BME280_humidity;BME280_pressure;Samples;Min_cycle;Max_cycle;Signal;HPM_P1;HPM_P2
2023/08/26 00:00:31;;;;;;;;;;;;;;;;;;5054599;28;20306;-21
2023/08/26 00:02:57;;;;;;;;;;;;;;;;;;5054630;28;19908;-20
2023/08/26 00:05:23;;;;;;;;;;;;;;;;;;5054363;28;19927;-20
2023/08/26 00:07:48;;;;;;;;;;;;;;;;;;5056809;28;19920;-22
2023/08/26 00:10:14;;;;;;;;;;;;;;;;;;5058988;28;19912;-21
2023/08/26 00:12:40;;;;;;;;;;;;;;;;;;5058478;28;19917;-22
2023/08/26 00:15:06;;;;;;;;;;;;;;;;;;5058617;28;19956;-21
2023/08/26 00:17:32;;;;;;;;;;;;;;;;;;5058489;28;19909;-21
2023/08/26 00:19:58;;;;;;;;;;;;;;;;;;5058453;28;19909;-20
2023/08/26 00:22:24;;;;;;;;;;;;;;;;;;5058395;28;20054;-20
2023/08/26 00:24:50;;;;;;;;;;;;;;;;;;5058421;28;19920;-21
2023/08/26 00:27:16;;;;;;;;;;;;;;;;;;5058364;28;20237;-21
2023/08/26 00:29:42;;;;;;;;;;;;;;;;;;5059043;28;19924;-20
2023/08/26 00:32:08;;;;;;;;;;;;;;;;;;5058145;28;19913;-22
2023/08/26 00:34:34;;;;;;;;;;;;;;;;;;5058517;28;19955;-21
2023/08/26 00:37:00;;;;;;;;;;;;;;;;;;5057213;28;19916;-20
2023/08/26 00:39:26;;;;;;;;;;;;;;;;;;5058370;28;19913;-22
2023/08/26 00:41:52;;;;;;;;;;;;;;;;;;5058308;28;19909;-20
2023/08/26 00:44:18;;;;;;;;;;;;;;;;;;5058054;28;19909;-23
2023/08/26 00:46:44;;;;;;;;;;;;;;;;;;5058001;28;19916;-22
2023/08/26 00:49:10;;;;;;;;;;;;;;;;;;5057928;28;19913;-21
2023/08/26 00:51:37;;;;;;;;;;;;;;;;;;5057964;28;19909;-21
2023/08/26 00:54:02;;;;;;;;;;;;;;;;;;5057796;28;19917;-21
2023/08/26 00:56:29;;;;;;;;;;;;;;;;;;5056809;28;20302;-20
2023/08/26 00:58:55;;;;;;;;;;;;;;;;;;5057838;28;20423;-22
2023/08/26 01:01:21;;;;;;;;;;;;;;;;;;5058021;28;19955;-20
2023/08/26 01:03:47;;;;;;;;;;;;;;;;;;5057918;28;19944;-23
2023/08/26 01:06:13;;;;;;;;;;;;;;;;;;5057532;28;19928;-20
2023/08/26 01:08:39;;;;;;;;;;;;;;;;;;5057561;28;19936;-20
2023/08/26 01:11:04;;;;;;;;;;;;;;;;;;5057594;28;20055;-20
2023/08/26 01:13:30;;;;;;;;;;;;;;;;;;5057528;28;19932;-21
2023/08/26 01:15:56;;;;;;;;;;;;;;;;;;5057514;28;19909;-22
2023/08/26 01:18:22;;;;;;;;;;;;;;;;;;5057644;28;19908;-21
2023/08/26 01:20:48;;;;;;;;;;;;;;;;;;5057415;28;20306;-21
2023/08/26 01:23:14;;;;;;;;;;;;;;;;;;5057249;28;19909;-20
2023/08/26 01:25:40;;;;;;;;;;;;;;;;;;5057549;28;19916;-21
2023/08/26 01:28:06;;;;;;;;;;;;;;;;;;5057421;28;20000;-22
2023/08/26 01:30:32;;;;;;;;;;;;;;;;;;5057205;28;19909;-20
2023/08/26 01:32:58;;;;;;;;;;;;;;;;;;5057383;28;19958;-21
2023/08/26 01:35:24;;;;;;;;;;;;;;;;;;5057140;28;19953;-22
2023/08/26 01:37:50;;;;;;;;;;;;;;;;;;5056059;28;19909;-20
2023/08/26 01:40:16;;;;;;;;;;;;;;;;;;5057252;28;19928;-21
2023/08/26 01:42:42;;;;;;;;;;;;;;;;;;5056930;28;20371;-20
2023/08/26 01:45:08;;;;;;;;;;;;;;;;;;5056020;28;19909;-22
2023/08/26 01:47:34;;;;;;;;;;;;;;;;;;5056858;28;19935;-21
2023/08/26 01:50:00;;;;;;;;;;;;;;;;;;5056850;28;19909;-20
2023/08/26 01:52:26;;;;;;;;;;;;;;;;;;5056770;28;19935;-21
2023/08/26 01:54:52;;;;;;;;;;;;;;;;;;5057033;28;20371;-22
2023/08/26 01:57:18;;;;;;;;;;;;;;;;;;5056960;28;19948;-22
2023/08/26 01:59:44;;;;;;;;;;;;;;;;;;5056685;28;19967;-21
2023/08/26 02:02:10;;;;;;;;;;;;;;;;;;5056784;28;19909;-23
2023/08/26 02:04:36;;;;;;;;;;;;;;;;;;5056838;28;20294;-20
2023/08/26 02:07:02;;;;;;;;;;;;;;;;;;5056318;28;19920;-21
2023/08/26 02:09:28;;;;;;;;;;;;;;;;;;5056441;28;19936;-21
2023/08/26 02:11:54;;;;;;;;;;;;;;;;;;5056378;28;19999;-21
2023/08/26 02:14:20;;;;;;;;;;;;;;;;;;5055365;28;19916;-21
2023/08/26 02:16:45;;;;;;;;;;;;;;;;;;5056592;28;19965;-21
2023/08/26 02:19:11;;;;;;;;;;;;;;;;;;5056298;28;19959;-21
2023/08/26 02:21:38;;;;;;;;;;;;;;;;;;5056273;28;19909;-20
2023/08/26 02:24:04;;;;;;;;;;;;;;;;;;5056200;28;19932;-20
2023/08/26 02:26:29;;;;;;;;;;;;;;;;;;5056482;28;19908;-20
2023/08/26 02:28:55;;;;;;;;;;;;;;;;;;5056049;28;19917;-20
2023/08/26 02:31:21;;;;;;;;;;;;;;;;;;5055501;28;19908;-21
2023/08/26 02:33:47;;;;;;;;;;;;;;;;;;5056214;28;20290;-21
2023/08/26 02:36:13;;;;;;;;;;;;;;;;;;5055973;28;19908;-20
2023/08/26 02:38:39;;;;;;;;;;;;;;;;;;5056140;28;19995;-20
2023/08/26 02:41:07;;;;;;;;;;;;;;;;;;5055925;28;19920;-20
2023/08/26 02:43:33;;;;;;;;;;;;;;;;;;5056007;28;20217;-21
2023/08/26 02:45:59;;;;;;;;;;;;;;;;;;5055854;28;19924;-21
2023/08/26 02:48:25;;;;;;;;;;;;;;;;;;5055670;28;19916;-20
2023/08/26 02:50:50;;;;;;;;;;;;;;;;;;5055703;28;20008;-22
2023/08/26 02:53:16;;;;;;;;;;;;;;;;;;5054617;28;19915;-20
2023/08/26 02:55:42;;;;;;;;;;;;;;;;;;5055605;28;19909;-22
2023/08/26 02:58:08;;;;;;;;;;;;;;;;;;5055802;28;19919;-21
2023/08/26 03:00:34;;;;;;;;;;;;;;;;;;5055797;28;20003;-19
2023/08/26 03:03:00;;;;;;;;;;;;;;;;;;5055406;28;19909;-19
2023/08/26 03:05:26;;;;;;;;;;;;;;;;;;5055271;28;19925;-19
2023/08/26 03:07:52;;;;;;;;;;;;;;;;;;5055342;28;19913;-21
2023/08/26 03:10:18;;;;;;;;;;;;;;;;;;5054344;28;20314;-22
2023/08/26 03:12:44;;;;;;;;;;;;;;;;;;5054136;28;19947;-20
2023/08/26 03:15:10;;;;;;;;;;;;;;;;;;5054245;28;19932;-21
2023/08/26 03:17:36;;;;;;;;;;;;;;;;;;5055164;28;19913;-20
2023/08/26 03:20:02;;;;;;;;;;;;;;;;;;5055439;28;19909;-21
2023/08/26 03:22:28;;;;;;;;;;;;;;;;;;5055028;28;19909;-20
2023/08/26 03:24:54;;;;;;;;;;;;;;;;;;5055056;28;19909;-22
2023/08/26 03:27:20;;;;;;;;;;;;;;;;;;5055010;28;19923;-20
2023/08/26 03:29:46;;;;;;;;;;;;;;;;;;5054973;28;20204;-21
2023/08/26 03:32:12;;;;;;;;;;;;;;;;;;5055182;28;19952;-21
2023/08/26 03:34:38;;;;;;;;;;;;;;;;;;5055007;28;19908;-20
2023/08/26 03:37:03;;;;;;;;;;;;;;;;;;5053937;28;19909;-19
2023/08/26 03:39:29;;;;;;;;;;;;;;;;;;5055189;28;19909;-22
2023/08/26 03:41:55;;;;;;;;;;;;;;;;;;5053974;28;19939;-22
2023/08/26 03:44:21;;;;;;;;;;;;;;;;;;5054900;28;19951;-22
2023/08/26 03:46:47;;;;;;;;;;;;;;;;;;5054705;28;19962;-21
2023/08/26 03:49:13;;;;;;;;;;;;;;;;;;5054930;28;19923;-21
2023/08/26 03:51:39;;;;;;;;;;;;;;;;;;5054686;28;20278;-22
2023/08/26 03:54:05;;;;;;;;;;;;;;;;;;5054533;28;19913;-21
2023/08/26 03:56:31;;;;;;;;;;;;;;;;;;5053563;28;20272;-21
2023/08/26 03:58:58;;;;;;;;;;;;;;;;;;5054559;28;19909;-21
2023/08/26 04:01:24;;;;;;;;;;;;;;;;;;5053591;28;20263;-22
2023/08/26 04:03:50;;;;;;;;;;;;;;;;;;5054528;28;19920;-22
2023/08/26 04:06:17;;;;;;;;;;;;;;;;;;5054360;28;19921;-21
2023/08/26 04:08:43;;;;;;;;;;;;;;;;;;5054422;28;19913;-22
2023/08/26 04:11:09;;;;;;;;;;;;;;;;;;5053525;28;19917;-21
2023/08/26 04:13:35;;;;;;;;;;;;;;;;;;5053440;28;20224;-21
2023/08/26 04:16:03;;;;;;;;;;;;;;;;;;5054489;28;20042;-21
2023/08/26 04:18:29;;;;;;;;;;;;;;;;;;5054443;28;19908;-21
2023/08/26 04:20:55;;;;;;;;;;;;;;;;;;5054410;28;19924;-21
2023/08/26 04:23:21;;;;;;;;;;;;;;;;;;5054425;28;19912;-22
2023/08/26 04:25:47;;;;;;;;;;;;;;;;;;5054624;28;19912;-20
2023/08/26 04:28:14;;;;;;;;;;;;;;;;;;5054253;28;19913;-20
2023/08/26 04:30:40;;;;;;;;;;;;;;;;;;5054586;28;20216;-21
2023/08/26 04:33:06;;;;;;;;;;;;;;;;;;5054292;28;19920;-22
2023/08/26 04:35:32;;;;;;;;;;;;;;;;;;5054285;28;19909;-20
2023/08/26 04:37:58;;;;;;;;;;;;;;;;;;5054185;28;19920;-23
2023/08/26 04:40:25;;;;;;;;;;;;;;;;;;5053247;28;19916;-20
2023/08/26 04:42:51;;;;;;;;;;;;;;;;;;5054041;28;19952;-21
2023/08/26 04:45:17;;;;;;;;;;;;;;;;;;5053954;28;19909;-21
2023/08/26 04:47:43;;;;;;;;;;;;;;;;;;5054304;28;20023;-21
2023/08/26 04:50:09;;;;;;;;;;;;;;;;;;5054152;28;19919;-21
2023/08/26 04:52:34;;;;;;;;;;;;;;;;;;5054264;28;19908;-22
2023/08/26 04:55:00;;;;;;;;;;;;;;;;;;5057934;28;19908;-22
2023/08/26 04:57:26;;;;;;;;;;;;;;;;;;5058111;28;19909;-22
2023/08/26 04:59:52;;;;;;;;;;;;;;;;;;5057804;28;20330;-22
2023/08/26 05:02:18;;;;;;;;;;;;;;;;;;5057635;28;20251;-21
2023/08/26 05:04:44;;;;;;;;;;;;;;;;;;5057445;28;19967;-22
2023/08/26 05:07:10;;;;;;;;;;;;;;;;;;5057631;28;19952;-20
2023/08/26 05:09:36;;;;;;;;;;;;;;;;;;5057655;28;20008;-21
2023/08/26 05:12:03;;;;;;;;;;;;;;;;;;5057814;28;20225;-23
2023/08/26 05:14:29;;;;;;;;;;;;;;;;;;5057553;28;20031;-22
2023/08/26 05:16:55;;;;;;;;;;;;;;;;;;5057519;28;20414;-23
2023/08/26 05:19:20;;;;;;;;;;;;;;;;;;5056437;28;19909;-22
2023/08/26 05:21:46;;;;;;;;;;;;;;;;;;5057357;28;19952;-22
2023/08/26 05:24:12;;;;;;;;;;;;;;;;;;5057311;28;19924;-21
2023/08/26 05:26:38;;;;;;;;;;;;;;;;;;5056255;28;19909;-21
2023/08/26 05:29:04;;;;;;;;;;;;;;;;;;5057451;28;19917;-21
2023/08/26 05:31:31;;;;;;;;;;;;;;;;;;5057221;28;19909;-22
2023/08/26 05:33:57;;;;;;;;;;;;;;;;;;5057378;28;20232;-21
2023/08/26 05:36:23;;;;;;;;;;;;;;;;;;5057186;28;19932;-22
2023/08/26 05:38:48;;;;;;;;;;;;;;;;;;5056082;28;19909;-20
2023/08/26 05:41:14;;;;;;;;;;;;;;;;;;5057570;28;19931;-21
2023/08/26 05:43:40;;;;;;;;;;;;;;;;;;5056896;28;19916;-21
2023/08/26 05:46:06;;;;;;;;;;;;;;;;;;5056950;28;19966;-23
2023/08/26 05:48:32;;;;;;;;;;;;;;;;;;5056822;28;20011;-23
2023/08/26 05:50:58;;;;;;;;;;;;;;;;;;5056844;28;19920;-21
2023/08/26 05:53:24;;;;;;;;;;;;;;;;;;5056667;28;19909;-21
2023/08/26 05:55:50;;;;;;;;;;;;;;;;;;5056955;28;19909;-21
2023/08/26 05:58:16;;;;;;;;;;;;;;;;;;5056640;28;19909;-21
2023/08/26 06:00:42;;;;;;;;;;;;;;;;;;5056884;28;19919;-22
2023/08/26 06:03:08;;;;;;;;;;;;;;;;;;5056655;28;19947;-20
2023/08/26 06:05:34;;;;;;;;;;;;;;;;;;5054363;28;20016;-21
2023/08/26 06:08:00;;;;;;;;;;;;;;;;;;5056508;28;19917;-22
2023/08/26 06:10:26;;;;;;;;;;;;;;;;;;5055582;28;19915;-22
2023/08/26 06:12:52;;;;;;;;;;;;;;;;;;5056415;28;19909;-22
2023/08/26 06:15:18;;;;;;;;;;;;;;;;;;5056392;28;19908;-21
2023/08/26 06:17:44;;;;;;;;;;;;;;;;;;5056330;28;19908;-24
2023/08/26 06:20:10;;;;;;;;;;;;;;;;;;5056264;28;19908;-21
2023/08/26 06:22:36;;;;;;;;;;;;;;;;;;5056183;28;19919;-23
2023/08/26 06:25:01;;;;;;;;;;;;;;;;;;5056247;28;20323;-22
2023/08/26 06:27:27;;;;;;;;;;;;;;;;;;5056353;28;20015;-22
2023/08/26 06:29:53;;;;;;;;;;;;;;;;;;5055026;28;20009;-22
2023/08/26 06:32:19;;;;;;;;;;;;;;;;;;5056231;28;19909;-22
2023/08/26 06:34:45;;;;;;;;;;;;;;;;;;5055980;28;19913;-21
2023/08/26 06:37:11;;;;;;;;;;;;;;;;;;5056227;28;19943;-22
2023/08/26 06:39:37;;;;;;;;;;;;;;;;;;5055932;28;19913;-21
2023/08/26 06:42:03;;;;;;;;;;;;;;;;;;5056011;28;19932;-22
2023/08/26 06:44:29;;;;;;;;;;;;;;;;;;5054860;28;20031;-24
2023/08/26 06:46:55;;;;;;;;;;;;;;;;;;5054793;28;19913;-28
2023/08/26 06:49:21;;;;;;;;;;;;;;;;;;5055957;28;19959;-21
2023/08/26 06:51:47;;;;;;;;;;;;;;;;;;5054667;28;19908;-21
2023/08/26 06:54:13;;;;;;;;;;;;;;;;;;5055983;28;19909;-21
2023/08/26 06:56:39;;;;;;;;;;;;;;;;;;5055864;28;19909;-22
2023/08/26 06:59:05;;;;;;;;;;;;;;;;;;5055637;28;19979;-23
2023/08/26 07:01:33;;;;;;;;;;;;;;;;;;5055596;28;19908;-24
2023/08/26 07:03:59;;;;;;;;;;;;;;;;;;5055484;28;19908;-21
2023/08/26 07:06:26;;;;;;;;;;;;;;;;;;5055300;28;19925;-22
2023/08/26 07:08:52;;;;;;;;;;;;;;;;;;5054278;28;20275;-23
2023/08/26 07:11:18;;;;;;;;;;;;;;;;;;5055410;28;19908;-23
2023/08/26 07:13:44;;;;;;;;;;;;;;;;;;5055291;28;20019;-21
2023/08/26 07:16:10;;;;;;;;;;;;;;;;;;5055169;28;20243;-21
2023/08/26 07:18:36;;;;;;;;;;;;;;;;;;5054227;28;20352;-21
2023/08/26 07:21:02;;;;;;;;;;;;;;;;;;5055192;28;20343;-20
2023/08/26 07:23:28;;;;;;;;;;;;;;;;;;5055392;28;19909;-21
2023/08/26 07:25:54;;;;;;;;;;;;;;;;;;5055130;28;20378;-21
2023/08/26 07:28:20;;;;;;;;;;;;;;;;;;5055037;28;20366;-21
2023/08/26 07:30:46;;;;;;;;;;;;;;;;;;5055116;28;20293;-22
2023/08/26 07:33:12;;;;;;;;;;;;;;;;;;5054974;28;20405;-20
2023/08/26 07:35:37;;;;;;;;;;;;;;;;;;5054984;28;19915;-21
2023/08/26 07:38:03;;;;;;;;;;;;;;;;;;5055191;28;20354;-21
2023/08/26 07:40:29;;;;;;;;;;;;;;;;;;5053847;28;20007;-21
2023/08/26 07:42:56;;;;;;;;;;;;;;;;;;5055013;28;20236;-22
2023/08/26 07:45:22;;;;;;;;;;;;;;;;;;5054814;28;19908;-21
2023/08/26 07:47:48;;;;;;;;;;;;;;;;;;5054672;28;20347;-21
2023/08/26 07:50:14;;;;;;;;;;;;;;;;;;5054978;28;19909;-20
2023/08/26 07:52:40;;;;;;;;;;;;;;;;;;5054672;28;19939;-21
2023/08/26 07:55:06;;;;;;;;;;;;;;;;;;5054932;28;20392;-20
2023/08/26 07:57:32;;;;;;;;;;;;;;;;;;5054707;28;20356;-20
2023/08/26 07:59:58;;;;;;;;;;;;;;;;;;5054630;28;20000;-22
2023/08/26 08:02:24;;;;;;;;;;;;;;;;;;5054595;28;19952;-20
2023/08/26 08:04:50;;;;;;;;;;;;;;;;;;5056031;28;19916;-21
2023/08/26 08:07:16;;;;;;;;;;;;;;;;;;5056492;28;19917;-20
2023/08/26 08:09:42;;;;;;;;;;;;;;;;;;5054884;28;20221;-22
2023/08/26 08:12:12;;;;;;;;;;;;;;;;;;5054732;28;19916;-20
2023/08/26 08:14:38;;;;;;;;;;;;;;;;;;5053512;28;20415;-22
2023/08/26 08:17:04;;;;;;;;;;;;;;;;;;5053499;28;19913;-22
2023/08/26 08:19:30;;;;;;;;;;;;;;;;;;5054706;28;19966;-20
2023/08/26 08:21:56;;;;;;;;;;;;;;;;;;5053313;28;19982;-21
2023/08/26 08:24:22;;;;;;;;;;;;;;;;;;5053367;28;20271;-22
2023/08/26 08:26:48;;;;;;;;;;;;;;;;;;5054418;28;19916;-21
2023/08/26 08:29:14;;;;;;;;;;;;;;;;;;5057223;28;19913;-21
2023/08/26 08:31:40;;;;;;;;;;;;;;;;;;5058412;28;19958;-22
2023/08/26 08:34:06;;;;;;;;;;;;;;;;;;5058127;28;19909;-21
2023/08/26 08:36:32;;;;;;;;;;;;;;;;;;5058332;28;19909;-21
2023/08/26 08:38:59;;;;;;;;;;;;;;;;;;5057316;28;20235;-21
2023/08/26 08:41:25;;;;;;;;;;;;;;;;;;5058287;28;19909;-22
2023/08/26 08:43:51;;;;;;;;;;;;;;;;;;5058176;28;20011;-21
2023/08/26 08:46:17;;;;;;;;;;;;;;;;;;5058146;28;19909;-20
2023/08/26 08:48:43;;;;;;;;;;;;;;;;;;5058006;28;19923;-21
2023/08/26 08:51:09;;;;;;;;;;;;;;;;;;5057997;28;20239;-20
2023/08/26 08:53:35;;;;;;;;;;;;;;;;;;5057947;28;19913;-22
2023/08/26 08:56:01;;;;;;;;;;;;;;;;;;5057905;28;19909;-22
2023/08/26 08:58:26;;;;;;;;;;;;;;;;;;5057856;28;19909;-22
2023/08/26 09:00:52;;;;;;;;;;;;;;;;;;5058068;28;20302;-21
2023/08/26 09:03:18;;;;;;;;;;;;;;;;;;5057717;28;20256;-21
2023/08/26 09:05:44;;;;;;;;;;;;;;;;;;5057501;28;20259;-20
2023/08/26 09:08:10;;;;;;;;;;;;;;;;;;5057927;28;20328;-22
2023/08/26 09:10:36;;;;;;;;;;;;;;;;;;5057658;28;19909;-20
2023/08/26 09:13:04;;;;;;;;;;;;;;;;;;5057756;28;19909;-21
2023/08/26 09:15:30;;;;;;;;;;;;;;;;;;5057615;28;19916;-21
2023/08/26 09:17:56;;;;;;;;;;;;;;;;;;5057748;28;19908;-20
2023/08/26 09:20:22;;;;;;;;;;;;;;;;;;5057511;28;20000;-22
2023/08/26 09:22:48;;;;;;;;;;;;;;;;;;5057528;28;19968;-21
2023/08/26 09:25:14;;;;;;;;;;;;;;;;;;5057448;28;19963;-20
2023/08/26 09:27:40;;;;;;;;;;;;;;;;;;5057303;28;19912;-21
2023/08/26 09:30:06;;;;;;;;;;;;;;;;;;5057605;28;19944;-22
2023/08/26 09:32:32;;;;;;;;;;;;;;;;;;5056171;28;19912;-19
2023/08/26 09:34:58;;;;;;;;;;;;;;;;;;5057394;28;19908;-22
2023/08/26 09:37:24;;;;;;;;;;;;;;;;;;5057078;28;19962;-22
2023/08/26 09:39:50;;;;;;;;;;;;;;;;;;5054749;28;19955;-22
2023/08/26 09:42:16;;;;;;;;;;;;;;;;;;5057171;28;20340;-21
2023/08/26 09:44:42;;;;;;;;;;;;;;;;;;5057241;28;20358;-21
2023/08/26 09:47:08;;;;;;;;;;;;;;;;;;5056874;28;19954;-20
2023/08/26 09:49:33;;;;;;;;;;;;;;;;;;5056989;28;19908;-21
2023/08/26 09:51:59;;;;;;;;;;;;;;;;;;5056831;28;20185;-21
2023/08/26 09:54:25;;;;;;;;;;;;;;;;;;5056918;28;20352;-22
2023/08/26 09:56:51;;;;;;;;;;;;;;;;;;5057060;28;19944;-20
2023/08/26 09:59:17;;;;;;;;;;;;;;;;;;5056746;28;19909;-21
2023/08/26 10:01:43;;;;;;;;;;;;;;;;;;5056961;28;19908;-21
2023/08/26 10:04:09;;;;;;;;;;;;;;;;;;5056584;28;19915;-22
2023/08/26 10:06:35;;;;;;;;;;;;;;;;;;5056414;28;19925;-21
2023/08/26 10:09:01;;;;;;;;;;;;;;;;;;5056447;28;19952;-22
2023/08/26 10:11:27;;;;;;;;;;;;;;;;;;5056564;28;19909;-22
2023/08/26 10:13:53;;;;;;;;;;;;;;;;;;5055419;28;19909;-21
2023/08/26 10:16:19;;;;;;;;;;;;;;;;;;5056683;28;19909;-22
2023/08/26 10:18:45;;;;;;;;;;;;;;;;;;5056325;28;19923;-20
2023/08/26 10:21:11;;;;;;;;;;;;;;;;;;5055409;28;19908;-20
2023/08/26 10:23:37;;;;;;;;;;;;;;;;;;5056281;28;19917;-23
2023/08/26 10:26:03;;;;;;;;;;;;;;;;;;5056253;28;19966;-22
2023/08/26 10:28:29;;;;;;;;;;;;;;;;;;5056158;28;19955;-22
2023/08/26 10:30:54;;;;;;;;;;;;;;;;;;5056095;28;19909;-21
2023/08/26 10:33:20;;;;;;;;;;;;;;;;;;5056054;28;20019;-21
2023/08/26 10:35:46;;;;;;;;;;;;;;;;;;5056356;28;19916;-20
2023/08/26 10:38:12;;;;;;;;;;;;;;;;;;5056027;28;20324;-21
2023/08/26 10:40:38;;;;;;;;;;;;;;;;;;5056267;28;20335;-22
2023/08/26 10:43:05;;;;;;;;;;;;;;;;;;5056072;28;19951;-22
2023/08/26 10:45:31;;;;;;;;;;;;;;;;;;5055883;28;20251;-23
2023/08/26 10:47:57;;;;;;;;;;;;;;;;;;5055712;28;19920;-20
2023/08/26 10:50:23;;;;;;;;;;;;;;;;;;5055480;28;20228;-21
2023/08/26 10:52:48;;;;;;;;;;;;;;;;;;5055496;28;19909;-20
2023/08/26 10:55:15;;;;;;;;;;;;;;;;;;5055663;28;19919;-21
2023/08/26 10:57:41;;;;;;;;;;;;;;;;;;5055617;28;19917;-20
2023/08/26 11:00:06;;;;;;;;;;;;;;;;;;5055544;28;19970;-22
2023/08/26 11:02:32;;;;;;;;;;;;;;;;;;5055504;28;20221;-23
2023/08/26 11:04:59;;;;;;;;;;;;;;;;;;5055489;28;19909;-22
2023/08/26 11:07:25;;;;;;;;;;;;;;;;;;5055284;28;19974;-21
2023/08/26 11:09:50;;;;;;;;;;;;;;;;;;5055444;28;19909;-21
2023/08/26 11:12:16;;;;;;;;;;;;;;;;;;5054377;28;19928;-22
2023/08/26 11:14:42;;;;;;;;;;;;;;;;;;5055359;28;19913;-21
2023/08/26 11:17:08;;;;;;;;;;;;;;;;;;5055300;28;20073;-22
2023/08/26 11:19:34;;;;;;;;;;;;;;;;;;5055503;28;19919;-21
2023/08/26 11:22:00;;;;;;;;;;;;;;;;;;5055057;28;20008;-22
2023/08/26 11:24:26;;;;;;;;;;;;;;;;;;5055377;28;19978;-21
2023/08/26 11:26:52;;;;;;;;;;;;;;;;;;5055059;28;20003;-22
2023/08/26 11:29:18;;;;;;;;;;;;;;;;;;5055212;28;19913;-21
2023/08/26 11:31:46;;;;;;;;;;;;;;;;;;5054545;28;20214;-22
2023/08/26 11:34:12;;;;;;;;;;;;;;;;;;5054887;28;19963;-20
2023/08/26 11:36:38;;;;;;;;;;;;;;;;;;5054959;28;19981;-21
2023/08/26 11:39:07;;;;;;;;;;;;;;;;;;5054885;28;19912;-21
2023/08/26 11:41:33;;;;;;;;;;;;;;;;;;5054825;28;19909;-21
2023/08/26 11:43:58;;;;;;;;;;;;;;;;;;5054766;28;19992;-21
2023/08/26 11:46:24;;;;;;;;;;;;;;;;;;5054823;28;19915;-21
2023/08/26 11:48:50;;;;;;;;;;;;;;;;;;5054702;28;19921;-22
2023/08/26 11:51:16;;;;;;;;;;;;;;;;;;5054745;28;19916;-21
2023/08/26 11:53:42;;;;;;;;;;;;;;;;;;5054686;28;19963;-22
2023/08/26 11:56:08;;;;;;;;;;;;;;;;;;5053657;28;19980;-22
2023/08/26 11:58:34;;;;;;;;;;;;;;;;;;5054721;28;19909;-21
2023/08/26 12:01:02;;;;;;;;;;;;;;;;;;5054878;28;20004;-20
2023/08/26 12:03:29;;;;;;;;;;;;;;;;;;5053774;28;19919;-21
2023/08/26 12:05:55;;;;;;;;;;;;;;;;;;5054970;28;19917;-23
2023/08/26 12:08:21;;;;;;;;;;;;;;;;;;5054793;28;19924;-21
2023/08/26 12:10:47;;;;;;;;;;;;;;;;;;5054545;28;19913;-21
2023/08/26 12:13:13;;;;;;;;;;;;;;;;;;5054487;28;20323;-20
2023/08/26 12:15:40;;;;;;;;;;;;;;;;;;5054801;28;19913;-23
2023/08/26 12:18:06;;;;;;;;;;;;;;;;;;5054479;28;19908;-20
2023/08/26 12:20:32;;;;;;;;;;;;;;;;;;5053486;28;19931;-22
2023/08/26 12:22:58;;;;;;;;;;;;;;;;;;5054382;28;19913;-27
2023/08/26 12:25:24;;;;;;;;;;;;;;;;;;5054396;28;19920;-22
2023/08/26 12:27:50;;;;;;;;;;;;;;;;;;5054565;28;19923;-21
2023/08/26 12:30:16;;;;;;;;;;;;;;;;;;5053448;28;20221;-21
2023/08/26 12:32:42;;;;;;;;;;;;;;;;;;5054309;28;19909;-19
2023/08/26 12:35:08;;;;;;;;;;;;;;;;;;5054615;28;19909;-22
2023/08/26 12:37:34;;;;;;;;;;;;;;;;;;5054352;28;19915;-22
2023/08/26 12:40:04;;;;;;;;;;;;;;;;;;5054539;28;20000;-23
2023/08/26 12:42:30;;;;;;;;;;;;;;;;;;5054420;28;19909;-23
2023/08/26 12:44:56;;;;;;;;;;;;;;;;;;5054186;28;19913;-21
2023/08/26 12:47:22;;;;;;;;;;;;;;;;;;5054150;28;19919;-20
2023/08/26 12:49:47;;;;;;;;;;;;;;;;;;5054399;28;19970;-21
2023/08/26 12:52:13;;;;;;;;;;;;;;;;;;5054399;28;19948;-20
2023/08/26 12:54:39;;;;;;;;;;;;;;;;;;5054258;28;19919;-21
2023/08/26 12:57:06;;;;;;;;;;;;;;;;;;5054048;28;19913;-21
2023/08/26 12:59:32;;;;;;;;;;;;;;;;;;5054050;28;19908;-21
2023/08/26 13:01:57;;;;;;;;;;;;;;;;;;5054017;28;19923;-22
2023/08/26 13:04:23;;;;;;;;;;;;;;;;;;5053139;28;19909;-22
2023/08/26 13:06:49;;;;;;;;;;;;;;;;;;5053925;28;20007;-20
2023/08/26 13:09:15;;;;;;;;;;;;;;;;;;5054051;28;20261;-22
2023/08/26 13:11:41;;;;;;;;;;;;;;;;;;5054325;28;20335;-20
2023/08/26 13:14:07;;;;;;;;;;;;;;;;;;5054927;28;19924;-22
2023/08/26 13:16:33;;;;;;;;;;;;;;;;;;5057894;28;20399;-20
2023/08/26 13:18:59;;;;;;;;;;;;;;;;;;5057509;28;19943;-21
2023/08/26 13:21:26;;;;;;;;;;;;;;;;;;5057492;28;20007;-21
2023/08/26 13:23:52;;;;;;;;;;;;;;;;;;5057395;28;19928;-21
2023/08/26 13:26:18;;;;;;;;;;;;;;;;;;5057443;28;19909;-25
2023/08/26 13:28:45;;;;;;;;;;;;;;;;;;5057324;28;19912;-20
2023/08/26 13:31:11;;;;;;;;;;;;;;;;;;5057212;28;19909;-20
2023/08/26 13:33:37;;;;;;;;;;;;;;;;;;5057453;28;20286;-22
2023/08/26 13:36:03;;;;;;;;;;;;;;;;;;5057382;28;19999;-23
2023/08/26 13:38:29;;;;;;;;;;;;;;;;;;5057156;28;19915;-20
2023/08/26 13:40:55;;;;;;;;;;;;;;;;;;5057374;28;19932;-21
2023/08/26 13:43:21;;;;;;;;;;;;;;;;;;5057028;28;19980;-20
2023/08/26 13:45:47;;;;;;;;;;;;;;;;;;5057027;28;19912;-20
2023/08/26 13:48:13;;;;;;;;;;;;;;;;;;5056955;28;19975;-20
2023/08/26 13:50:39;;;;;;;;;;;;;;;;;;5057043;28;20012;-20
2023/08/26 13:53:05;;;;;;;;;;;;;;;;;;5057093;28;20382;-22
2023/08/26 13:55:31;;;;;;;;;;;;;;;;;;5057197;28;19909;-30
2023/08/26 13:57:57;;;;;;;;;;;;;;;;;;5056821;28;19951;-22
2023/08/26 14:00:23;;;;;;;;;;;;;;;;;;5055863;28;19916;-22
2023/08/26 14:02:49;;;;;;;;;;;;;;;;;;5056719;28;19935;-20
2023/08/26 14:05:14;;;;;;;;;;;;;;;;;;5056697;28;19908;-20
2023/08/26 14:07:42;;;;;;;;;;;;;;;;;;5056448;28;19920;-21
2023/08/26 14:10:08;;;;;;;;;;;;;;;;;;5056782;28;19909;-21
2023/08/26 14:12:38;;;;;;;;;;;;;;;;;;5056434;28;20275;-22
2023/08/26 14:15:04;;;;;;;;;;;;;;;;;;5056402;28;19919;-21
2023/08/26 14:17:30;;;;;;;;;;;;;;;;;;5056467;28;19909;-22
2023/08/26 14:19:56;;;;;;;;;;;;;;;;;;5056451;28;19909;-22
2023/08/26 14:22:22;;;;;;;;;;;;;;;;;;5056363;28;20332;-20
2023/08/26 14:24:48;;;;;;;;;;;;;;;;;;5057179;28;20280;-22
2023/08/26 14:27:15;;;;;;;;;;;;;;;;;;5055503;28;19928;-20
2023/08/26 14:29:41;;;;;;;;;;;;;;;;;;5056470;28;19919;-21
2023/08/26 14:32:07;;;;;;;;;;;;;;;;;;5056113;28;20067;-22
2023/08/26 14:34:33;;;;;;;;;;;;;;;;;;5055155;28;20379;-21
2023/08/26 14:36:59;;;;;;;;;;;;;;;;;;5056282;28;19928;-20
2023/08/26 14:39:25;;;;;;;;;;;;;;;;;;5056094;28;19912;-22
2023/08/26 14:41:51;;;;;;;;;;;;;;;;;;5056157;28;19909;-21
2023/08/26 14:44:17;;;;;;;;;;;;;;;;;;5055960;28;19937;-20
2023/08/26 14:46:43;;;;;;;;;;;;;;;;;;5055920;28;19909;-21
2023/08/26 14:49:11;;;;;;;;;;;;;;;;;;5055743;28;20436;-21
2023/08/26 14:51:38;;;;;;;;;;;;;;;;;;5056019;28;19996;-20
2023/08/26 14:54:05;;;;;;;;;;;;;;;;;;5055647;28;19974;-21
2023/08/26 14:56:31;;;;;;;;;;;;;;;;;;5055708;28;20430;-21
2023/08/26 14:58:57;;;;;;;;;;;;;;;;;;5055892;28;19948;-21
2023/08/26 15:01:23;;;;;;;;;;;;;;;;;;5055605;28;19909;-20
2023/08/26 15:03:49;;;;;;;;;;;;;;;;;;5055517;28;19909;-23
2023/08/26 15:06:15;;;;;;;;;;;;;;;;;;5055545;28;20022;-21
2023/08/26 15:08:41;;;;;;;;;;;;;;;;;;5055771;28;19912;-22
2023/08/26 15:11:07;;;;;;;;;;;;;;;;;;5055438;28;19916;-21
2023/08/26 15:13:33;;;;;;;;;;;;;;;;;;5055843;28;20007;-20
2023/08/26 15:15:59;;;;;;;;;;;;;;;;;;5055290;28;19909;-20
2023/08/26 15:18:25;;;;;;;;;;;;;;;;;;5055322;28;20396;-20
2023/08/26 15:20:51;;;;;;;;;;;;;;;;;;5055241;28;19909;-20
2023/08/26 15:23:17;;;;;;;;;;;;;;;;;;5055084;28;19909;-21
2023/08/26 15:25:43;;;;;;;;;;;;;;;;;;5055433;28;19920;-21
2023/08/26 15:28:10;;;;;;;;;;;;;;;;;;5055015;28;20258;-20
2023/08/26 15:30:36;;;;;;;;;;;;;;;;;;5054070;28;19975;-20
2023/08/26 15:33:01;;;;;;;;;;;;;;;;;;5055245;28;20317;-21
2023/08/26 15:35:27;;;;;;;;;;;;;;;;;;5054986;28;20339;-21
2023/08/26 15:37:53;;;;;;;;;;;;;;;;;;5054928;28;19909;-20
2023/08/26 15:40:19;;;;;;;;;;;;;;;;;;5053982;28;19991;-20
2023/08/26 15:42:45;;;;;;;;;;;;;;;;;;5054886;28;20340;-23
2023/08/26 15:45:11;;;;;;;;;;;;;;;;;;5055609;28;19909;-20
2023/08/26 15:47:37;;;;;;;;;;;;;;;;;;5054866;28;20228;-22
2023/08/26 15:50:03;;;;;;;;;;;;;;;;;;5054832;28;19919;-21
2023/08/26 15:52:29;;;;;;;;;;;;;;;;;;5054725;28;20233;-21
2023/08/26 15:54:55;;;;;;;;;;;;;;;;;;5054692;28;19917;-21
2023/08/26 15:57:21;;;;;;;;;;;;;;;;;;5054723;28;20250;-20
2023/08/26 15:59:47;;;;;;;;;;;;;;;;;;5054923;28;19913;-21
2023/08/26 16:02:13;;;;;;;;;;;;;;;;;;5053588;28;19917;-22
2023/08/26 16:04:39;;;;;;;;;;;;;;;;;;5054720;28;19917;-21
2023/08/26 16:07:05;;;;;;;;;;;;;;;;;;5054818;28;19925;-22
2023/08/26 16:09:31;;;;;;;;;;;;;;;;;;5054593;28;20004;-20
2023/08/26 16:11:58;;;;;;;;;;;;;;;;;;5054769;28;19916;-20
2023/08/26 16:14:24;;;;;;;;;;;;;;;;;;5054518;28;19940;-20
2023/08/26 16:16:49;;;;;;;;;;;;;;;;;;5054549;28;19916;-21
2023/08/26 16:19:15;;;;;;;;;;;;;;;;;;5054482;28;19912;-21
2023/08/26 16:21:41;;;;;;;;;;;;;;;;;;5054498;28;19909;-22
2023/08/26 16:24:07;;;;;;;;;;;;;;;;;;5054394;28;19909;-21
2023/08/26 16:26:34;;;;;;;;;;;;;;;;;;5054522;28;19971;-22
2023/08/26 16:28:59;;;;;;;;;;;;;;;;;;5054329;28;19960;-21
2023/08/26 16:31:25;;;;;;;;;;;;;;;;;;5053399;28;19919;-19
2023/08/26 16:33:51;;;;;;;;;;;;;;;;;;5053365;28;19920;-20
2023/08/26 16:36:17;;;;;;;;;;;;;;;;;;5054379;28;20237;-22